createdAt,value
2016-12-16T00:00:19.565Z,1027.49
2016-12-16T00:01:19.582Z,1027.47
2016-12-16T00:03:19.615Z,1027.45
2016-12-16T00:04:19.631Z,1027.47
2016-12-16T00:05:19.647Z,1027.46
2016-12-16T00:06:19.665Z,1027.48
2016-12-16T00:07:19.680Z,1027.47
2016-12-16T00:08:19.699Z,1027.42
2016-12-16T00:09:19.714Z,1027.4
2016-12-16T00:10:19.731Z,1027.38
2016-12-16T00:11:19.746Z,1027.39
2016-12-16T00:12:19.763Z,1027.44
2016-12-16T00:13:19.780Z,1027.46
2016-12-16T00:14:19.797Z,1027.4
2016-12-16T00:15:19.813Z,1027.43
2016-12-16T00:16:19.829Z,1027.51
2016-12-16T00:17:19.846Z,1027.43
2016-12-16T00:19:19.878Z,1027.39
2016-12-16T00:20:19.895Z,1027.44
2016-12-16T00:21:19.912Z,1027.45
2016-12-16T00:22:19.928Z,1027.38
2016-12-16T00:23:19.944Z,1027.39
2016-12-16T00:24:19.961Z,1027.39
2016-12-16T00:25:19.978Z,1027.39
2016-12-16T00:26:19.993Z,1027.4
2016-12-16T00:27:20.010Z,1027.4
2016-12-16T00:28:20.026Z,1027.43
2016-12-16T00:29:20.042Z,1027.38
2016-12-16T00:30:20.059Z,1027.39
2016-12-16T00:31:20.076Z,1027.37
2016-12-16T00:32:20.092Z,1027.4
2016-12-16T00:33:20.108Z,1027.4
2016-12-16T00:35:20.141Z,1027.4
2016-12-16T00:36:20.157Z,1027.47
2016-12-16T00:37:20.173Z,1027.44
2016-12-16T00:38:20.190Z,1027.44
2016-12-16T00:39:20.207Z,1027.37
2016-12-16T00:40:20.222Z,1027.43
2016-12-16T00:41:20.239Z,1027.39
2016-12-16T00:42:20.256Z,1027.43
2016-12-16T00:43:20.272Z,1027.44
2016-12-16T00:44:20.288Z,1027.47
2016-12-16T00:45:20.305Z,1027.5
2016-12-16T00:46:20.321Z,1027.51
2016-12-16T00:47:20.338Z,1027.53
2016-12-16T00:48:20.354Z,1027.5
2016-12-16T00:50:20.390Z,1027.47
2016-12-16T00:51:20.403Z,1027.48
2016-12-16T00:52:20.420Z,1027.46
2016-12-16T00:53:20.436Z,1027.45
2016-12-16T00:54:20.453Z,1027.51
2016-12-16T00:55:20.469Z,1027.48
2016-12-16T00:56:20.486Z,1027.47
2016-12-16T00:57:20.502Z,1027.45
2016-12-16T00:58:20.518Z,1027.52
2016-12-16T00:59:20.534Z,1027.52
2016-12-16T01:00:20.551Z,1027.48
2016-12-16T01:01:20.568Z,1027.54
2016-12-16T01:02:20.583Z,1027.56
2016-12-16T01:03:20.600Z,1027.51
2016-12-16T01:04:20.616Z,1027.51
2016-12-16T01:05:20.633Z,1027.53
2016-12-16T01:06:20.649Z,1027.54
2016-12-16T01:07:20.665Z,1027.5
2016-12-16T01:08:20.682Z,1027.51
2016-12-16T01:09:20.697Z,1027.52
2016-12-16T01:10:20.714Z,1027.5
2016-12-16T01:11:20.732Z,1027.51
2016-12-16T01:12:20.748Z,1027.49
2016-12-16T01:13:20.763Z,1027.56
2016-12-16T01:14:20.780Z,1027.6
2016-12-16T01:15:20.796Z,1027.59
2016-12-16T01:16:20.813Z,1027.55
2016-12-16T01:17:20.828Z,1027.56
2016-12-16T01:18:20.845Z,1027.55
2016-12-16T01:19:20.862Z,1027.65
2016-12-16T01:20:20.877Z,1027.57
2016-12-16T01:22:20.911Z,1027.57
2016-12-16T01:23:20.928Z,1027.6
2016-12-16T01:24:20.943Z,1027.65
2016-12-16T01:25:20.960Z,1027.63
2016-12-16T01:26:20.976Z,1027.62
2016-12-16T01:27:21.043Z,1027.6
2016-12-16T01:28:21.008Z,1027.61
2016-12-16T01:29:21.025Z,1027.63
2016-12-16T01:30:21.042Z,1027.64
2016-12-16T01:31:21.058Z,1027.62
2016-12-16T01:32:21.074Z,1027.65
2016-12-16T01:33:21.091Z,1027.63
2016-12-16T01:34:21.107Z,1027.6
2016-12-16T01:35:21.123Z,1027.59
2016-12-16T01:36:21.139Z,1027.51
2016-12-16T01:38:21.174Z,1027.59
2016-12-16T01:39:21.189Z,1027.56
2016-12-16T01:40:21.205Z,1027.59
2016-12-16T01:41:21.222Z,1027.57
2016-12-16T01:42:21.237Z,1027.56
2016-12-16T01:43:21.254Z,1027.62
2016-12-16T01:44:21.271Z,1027.61
2016-12-16T01:45:21.287Z,1027.59
2016-12-16T01:46:21.303Z,1027.59
2016-12-16T01:47:21.320Z,1027.59
2016-12-16T01:48:21.336Z,1027.69
2016-12-16T01:49:21.353Z,1027.6
2016-12-16T01:50:21.369Z,1027.58
2016-12-16T01:51:21.385Z,1027.58
2016-12-16T01:52:21.402Z,1027.57
2016-12-16T01:54:21.434Z,1027.55
2016-12-16T01:55:21.501Z,1027.53
2016-12-16T01:56:21.467Z,1027.52
2016-12-16T01:57:21.482Z,1027.56
2016-12-16T01:58:21.499Z,1027.48
2016-12-16T01:59:21.516Z,1027.52
2016-12-16T02:00:21.582Z,1027.5
2016-12-16T02:01:21.548Z,1027.53
2016-12-16T02:02:21.564Z,1027.54
2016-12-16T02:03:21.581Z,1027.49
2016-12-16T02:04:21.597Z,1027.55
2016-12-16T02:05:21.614Z,1027.58
2016-12-16T02:06:21.630Z,1027.58
2016-12-16T02:07:21.647Z,1027.58
2016-12-16T02:08:21.662Z,1027.6
2016-12-16T02:10:21.696Z,1027.55
2016-12-16T02:11:21.713Z,1027.53
2016-12-16T02:12:21.728Z,1027.61
2016-12-16T02:13:21.748Z,1027.57
2016-12-16T02:14:21.761Z,1027.48
2016-12-16T02:15:21.776Z,1027.58
2016-12-16T02:16:21.793Z,1027.57
2016-12-16T02:17:21.810Z,1027.58
2016-12-16T02:18:21.826Z,1027.56
2016-12-16T02:19:21.842Z,1027.56
2016-12-16T02:20:21.858Z,1027.48
2016-12-16T02:21:21.875Z,1027.47
2016-12-16T02:22:21.892Z,1027.51
2016-12-16T02:23:21.908Z,1027.53
2016-12-16T02:25:21.941Z,1027.55
2016-12-16T02:26:21.957Z,1027.59
2016-12-16T02:27:21.973Z,1027.56
2016-12-16T02:28:21.990Z,1027.56
2016-12-16T02:29:22.007Z,1027.51
2016-12-16T02:30:22.022Z,1027.53
2016-12-16T02:31:22.039Z,1027.55
2016-12-16T02:32:22.056Z,1027.56
2016-12-16T02:33:22.071Z,1027.5
2016-12-16T02:34:22.138Z,1027.53
2016-12-16T02:35:22.104Z,1027.56
2016-12-16T02:36:22.121Z,1027.53
2016-12-16T02:37:22.137Z,1027.55
2016-12-16T02:38:22.153Z,1027.56
2016-12-16T02:39:22.170Z,1027.54
2016-12-16T02:40:22.187Z,1027.61
2016-12-16T02:41:22.203Z,1027.62
2016-12-16T02:42:22.219Z,1027.59
2016-12-16T02:43:22.235Z,1027.59
2016-12-16T02:44:22.251Z,1027.62
2016-12-16T02:45:22.268Z,1027.66
2016-12-16T02:46:22.285Z,1027.6
2016-12-16T02:47:22.301Z,1027.59
2016-12-16T02:48:22.317Z,1027.55
2016-12-16T02:49:22.333Z,1027.52
2016-12-16T02:50:22.350Z,1027.59
2016-12-16T02:51:22.367Z,1027.57
2016-12-16T02:52:22.383Z,1027.56
2016-12-16T02:53:22.399Z,1027.56
2016-12-16T02:54:22.416Z,1027.57
2016-12-16T02:55:22.432Z,1027.53
2016-12-16T02:57:22.465Z,1027.57
2016-12-16T02:58:22.482Z,1027.55
2016-12-16T02:59:22.497Z,1027.53
2016-12-16T03:00:22.514Z,1027.55
2016-12-16T03:01:22.531Z,1027.55
2016-12-16T03:02:22.547Z,1027.54
2016-12-16T03:03:22.563Z,1027.5
2016-12-16T03:04:22.580Z,1027.46
2016-12-16T03:05:22.596Z,1027.48
2016-12-16T03:06:22.661Z,1027.51
2016-12-16T03:07:22.628Z,1027.52
2016-12-16T03:08:22.645Z,1027.52
2016-12-16T03:09:22.661Z,1027.54
2016-12-16T03:10:22.677Z,1027.54
2016-12-16T03:11:22.693Z,1027.57
2016-12-16T03:13:22.727Z,1027.57
2016-12-16T03:14:22.743Z,1027.58
2016-12-16T03:15:22.759Z,1027.55
2016-12-16T03:16:22.776Z,1027.59
2016-12-16T03:17:22.791Z,1027.55
2016-12-16T03:18:22.808Z,1027.57
2016-12-16T03:19:22.824Z,1027.53
2016-12-16T03:20:22.841Z,1027.53
2016-12-16T03:21:22.856Z,1027.56
2016-12-16T03:22:22.873Z,1027.56
2016-12-16T03:23:22.889Z,1027.59
2016-12-16T03:24:22.906Z,1027.51
2016-12-16T03:25:22.921Z,1027.48
2016-12-16T03:26:22.938Z,1027.47
2016-12-16T03:27:22.955Z,1027.47
2016-12-16T03:29:22.987Z,1027.53
2016-12-16T03:30:23.003Z,1027.48
2016-12-16T03:31:23.020Z,1027.43
2016-12-16T03:32:23.036Z,1027.45
2016-12-16T03:33:23.052Z,1027.43
2016-12-16T03:34:23.068Z,1027.39
2016-12-16T03:35:23.085Z,1027.41
2016-12-16T03:36:23.100Z,1027.39
2016-12-16T03:37:23.117Z,1027.41
2016-12-16T03:38:23.134Z,1027.38
2016-12-16T03:39:23.149Z,1027.4
2016-12-16T03:40:23.165Z,1027.36
2016-12-16T03:41:23.182Z,1027.43
2016-12-16T03:42:23.199Z,1027.4
2016-12-16T03:43:23.214Z,1027.39
2016-12-16T03:45:23.248Z,1027.44
2016-12-16T03:46:23.264Z,1027.44
2016-12-16T03:47:23.279Z,1027.45
2016-12-16T03:48:23.296Z,1027.46
2016-12-16T03:49:23.312Z,1027.43
2016-12-16T03:50:23.328Z,1027.47
2016-12-16T03:51:23.345Z,1027.44
2016-12-16T03:52:23.361Z,1027.46
2016-12-16T03:53:23.378Z,1027.47
2016-12-16T03:54:23.393Z,1027.46
2016-12-16T03:55:23.409Z,1027.39
2016-12-16T03:56:23.426Z,1027.48
2016-12-16T03:57:23.442Z,1027.44
2016-12-16T03:58:23.459Z,1027.46
2016-12-16T04:00:23.492Z,1027.47
2016-12-16T04:01:23.509Z,1027.45
2016-12-16T04:02:23.524Z,1027.51
2016-12-16T04:03:23.541Z,1027.5
2016-12-16T04:04:23.557Z,1027.52
2016-12-16T04:05:23.573Z,1027.54
2016-12-16T04:06:23.589Z,1027.46
2016-12-16T04:07:23.605Z,1027.49
2016-12-16T04:08:23.621Z,1027.49
2016-12-16T04:09:23.638Z,1027.46
2016-12-16T04:10:23.654Z,1027.48
2016-12-16T04:11:23.670Z,1027.47
2016-12-16T04:12:23.686Z,1027.47
2016-12-16T04:13:23.702Z,1027.49
2016-12-16T04:14:23.718Z,1027.49
2016-12-16T04:15:23.735Z,1027.51
2016-12-16T04:16:23.750Z,1027.53
2016-12-16T04:17:23.766Z,1027.57
2016-12-16T04:18:23.782Z,1027.58
2016-12-16T04:19:23.798Z,1027.62
2016-12-16T04:20:23.814Z,1027.6
2016-12-16T04:21:23.830Z,1027.53
2016-12-16T04:22:23.846Z,1027.56
2016-12-16T04:23:23.862Z,1027.57
2016-12-16T04:24:23.878Z,1027.55
2016-12-16T04:25:23.895Z,1027.56
2016-12-16T04:26:23.911Z,1027.57
2016-12-16T04:27:23.926Z,1027.57
2016-12-16T04:28:23.942Z,1027.57
2016-12-16T04:29:23.958Z,1027.57
2016-12-16T04:30:23.973Z,1027.56
2016-12-16T04:32:24.006Z,1027.57
2016-12-16T04:33:24.023Z,1027.54
2016-12-16T04:34:24.037Z,1027.52
2016-12-16T04:35:24.053Z,1027.53
2016-12-16T04:36:24.070Z,1027.51
2016-12-16T04:37:24.085Z,1027.54
2016-12-16T04:38:24.100Z,1027.5
2016-12-16T04:39:24.117Z,1027.53
2016-12-16T04:40:24.133Z,1027.53
2016-12-16T04:41:24.148Z,1027.57
2016-12-16T04:42:24.164Z,1027.54
2016-12-16T04:43:24.180Z,1027.57
2016-12-16T04:44:24.198Z,1027.55
2016-12-16T04:45:24.261Z,1027.56
2016-12-16T04:46:24.227Z,1027.6
2016-12-16T04:48:24.259Z,1027.6
2016-12-16T04:49:24.274Z,1027.66
2016-12-16T04:50:24.290Z,1027.62
2016-12-16T04:51:24.307Z,1027.56
2016-12-16T04:52:24.321Z,1027.55
2016-12-16T04:53:24.337Z,1027.61
2016-12-16T04:54:24.353Z,1027.59
2016-12-16T04:55:24.379Z,1027.61
2016-12-16T04:56:24.384Z,1027.57
2016-12-16T04:57:24.400Z,1027.61
2016-12-16T04:58:24.416Z,1027.6
2016-12-16T04:59:24.432Z,1027.63
2016-12-16T05:00:24.447Z,1027.59
2016-12-16T05:01:24.465Z,1027.61
2016-12-16T05:02:24.479Z,1027.62
2016-12-16T05:04:24.510Z,1027.62
2016-12-16T05:05:24.526Z,1027.61
2016-12-16T05:06:24.542Z,1027.63
2016-12-16T05:07:24.557Z,1027.62
2016-12-16T05:08:24.573Z,1027.67
2016-12-16T05:09:24.589Z,1027.66
2016-12-16T05:10:24.605Z,1027.64
2016-12-16T05:11:24.620Z,1027.66
2016-12-16T05:12:24.636Z,1027.67
2016-12-16T05:13:24.652Z,1027.68
2016-12-16T05:14:24.667Z,1027.71
2016-12-16T05:15:24.683Z,1027.71
2016-12-16T05:16:24.699Z,1027.69
2016-12-16T05:17:24.715Z,1027.7
2016-12-16T05:18:24.730Z,1027.73
2016-12-16T05:20:24.762Z,1027.67
2016-12-16T05:21:24.778Z,1027.71
2016-12-16T05:22:24.793Z,1027.71
2016-12-16T05:23:24.808Z,1027.69
2016-12-16T05:24:24.824Z,1027.67
2016-12-16T05:25:24.839Z,1027.68
2016-12-16T05:26:24.855Z,1027.62
2016-12-16T05:27:24.871Z,1027.65
2016-12-16T05:28:24.887Z,1027.61
2016-12-16T05:29:24.902Z,1027.61
2016-12-16T05:30:24.918Z,1027.61
2016-12-16T05:31:24.934Z,1027.58
2016-12-16T05:32:24.949Z,1027.6
2016-12-16T05:33:24.965Z,1027.59
2016-12-16T05:35:24.997Z,1027.6
2016-12-16T05:36:25.012Z,1027.58
2016-12-16T05:37:25.028Z,1027.53
2016-12-16T05:38:25.043Z,1027.58
2016-12-16T05:39:25.059Z,1027.57
2016-12-16T05:40:25.074Z,1027.57
2016-12-16T05:41:25.090Z,1027.56
2016-12-16T05:42:25.106Z,1027.6
2016-12-16T05:43:25.121Z,1027.6
2016-12-16T05:44:25.137Z,1027.64
2016-12-16T05:45:25.152Z,1027.63
2016-12-16T05:46:25.167Z,1027.64
2016-12-16T05:47:25.182Z,1027.63
2016-12-16T05:48:25.198Z,1027.67
2016-12-16T05:49:25.214Z,1027.68
2016-12-16T05:50:25.231Z,1027.66
2016-12-16T05:51:25.244Z,1027.69
2016-12-16T05:52:25.261Z,1027.66
2016-12-16T05:53:25.276Z,1027.66
2016-12-16T05:54:25.290Z,1027.62
2016-12-16T05:55:25.306Z,1027.65
2016-12-16T05:56:25.322Z,1027.65
2016-12-16T05:57:25.337Z,1027.67
2016-12-16T05:58:25.353Z,1027.62
2016-12-16T05:59:25.369Z,1027.66
2016-12-16T06:00:25.384Z,1027.63
2016-12-16T06:01:25.400Z,1027.64
2016-12-16T06:02:25.414Z,1027.57
2016-12-16T06:03:25.430Z,1027.66
2016-12-16T06:04:25.446Z,1027.63
2016-12-16T06:05:25.462Z,1027.67
2016-12-16T06:07:25.492Z,1027.64
2016-12-16T06:08:25.507Z,1027.63
2016-12-16T06:09:25.522Z,1027.63
2016-12-16T06:10:25.537Z,1027.63
2016-12-16T06:11:25.553Z,1027.65
2016-12-16T06:12:25.569Z,1027.64
2016-12-16T06:13:25.583Z,1027.65
2016-12-16T06:14:25.599Z,1027.62
2016-12-16T06:15:25.615Z,1027.63
2016-12-16T06:16:25.629Z,1027.6
2016-12-16T06:17:25.644Z,1027.57
2016-12-16T06:18:25.660Z,1027.63
2016-12-16T06:19:25.676Z,1027.61
2016-12-16T06:20:25.995Z,1027.64
2016-12-16T06:21:25.706Z,1027.65
2016-12-16T06:23:25.737Z,1027.65
2016-12-16T06:24:25.751Z,1027.66
2016-12-16T06:25:25.767Z,1027.65
2016-12-16T06:26:25.782Z,1027.61
2016-12-16T06:27:25.797Z,1027.66
2016-12-16T06:28:25.813Z,1027.63
2016-12-16T06:29:25.828Z,1027.67
2016-12-16T06:30:25.843Z,1027.69
2016-12-16T06:31:25.858Z,1027.66
2016-12-16T06:32:25.873Z,1027.68
2016-12-16T06:33:25.889Z,1027.68
2016-12-16T06:34:25.904Z,1027.71
2016-12-16T06:35:25.920Z,1027.7
2016-12-16T06:36:25.934Z,1027.69
2016-12-16T06:37:25.950Z,1027.72
2016-12-16T06:39:25.980Z,1027.74
2016-12-16T06:40:25.995Z,1027.74
2016-12-16T06:41:26.010Z,1027.76
2016-12-16T06:42:26.025Z,1027.73
2016-12-16T06:43:26.040Z,1027.73
2016-12-16T06:44:26.059Z,1027.78
2016-12-16T06:45:26.071Z,1027.76
2016-12-16T06:46:26.086Z,1027.74
2016-12-16T06:47:26.104Z,1027.72
2016-12-16T06:48:26.116Z,1027.74
2016-12-16T06:49:26.131Z,1027.75
2016-12-16T06:50:26.146Z,1027.75
2016-12-16T06:51:26.162Z,1027.72
2016-12-16T06:52:26.227Z,1027.71
2016-12-16T06:53:26.192Z,1027.71
2016-12-16T06:55:26.222Z,1027.68
2016-12-16T06:56:26.237Z,1027.73
2016-12-16T06:57:26.251Z,1027.66
2016-12-16T06:58:26.267Z,1027.66
2016-12-16T06:59:26.282Z,1027.67
2016-12-16T07:00:26.297Z,1027.7
2016-12-16T07:01:26.312Z,1027.71
2016-12-16T07:02:26.327Z,1027.7
2016-12-16T07:03:26.343Z,1027.71
2016-12-16T07:04:26.357Z,1027.7
2016-12-16T07:05:26.372Z,1027.7
2016-12-16T07:06:26.388Z,1027.71
2016-12-16T07:07:26.453Z,1027.72
2016-12-16T07:08:26.419Z,1027.67
2016-12-16T07:10:26.449Z,1027.69
2016-12-16T07:11:26.463Z,1027.7
2016-12-16T07:12:26.480Z,1027.72
2016-12-16T07:13:26.494Z,1027.68
2016-12-16T07:14:26.509Z,1027.71
2016-12-16T07:15:26.523Z,1027.72
2016-12-16T07:16:26.539Z,1027.71
2016-12-16T07:17:26.556Z,1027.7
2016-12-16T07:18:26.570Z,1027.69
2016-12-16T07:19:26.583Z,1027.71
2016-12-16T07:20:26.599Z,1027.7
2016-12-16T07:21:26.614Z,1027.68
2016-12-16T07:22:26.628Z,1027.69
2016-12-16T07:23:26.644Z,1027.68
2016-12-16T07:24:26.659Z,1027.72
2016-12-16T07:25:26.675Z,1027.75
2016-12-16T07:26:26.688Z,1027.75
2016-12-16T07:27:26.704Z,1027.75
2016-12-16T07:28:26.719Z,1027.75
2016-12-16T07:29:26.733Z,1027.78
2016-12-16T07:30:26.748Z,1027.78
2016-12-16T07:31:26.764Z,1027.8
2016-12-16T07:32:26.779Z,1027.78
2016-12-16T07:33:26.793Z,1027.82
2016-12-16T07:34:26.809Z,1027.85
2016-12-16T07:35:26.824Z,1027.86
2016-12-16T07:36:26.839Z,1027.88
2016-12-16T07:37:26.854Z,1027.87
2016-12-16T07:38:26.873Z,1027.87
2016-12-16T07:39:26.884Z,1027.83
2016-12-16T07:40:26.898Z,1027.88
2016-12-16T07:42:26.929Z,1027.87
2016-12-16T07:43:26.944Z,1027.86
2016-12-16T07:44:26.958Z,1027.9
2016-12-16T07:45:26.974Z,1027.89
2016-12-16T07:46:26.989Z,1027.95
2016-12-16T07:47:27.004Z,1027.92
2016-12-16T07:48:27.019Z,1028.01
2016-12-16T07:49:27.034Z,1027.99
2016-12-16T07:50:27.049Z,1027.99
2016-12-16T07:51:27.063Z,1027.97
2016-12-16T07:52:27.080Z,1028.01
2016-12-16T07:53:27.094Z,1028.03
2016-12-16T07:54:27.109Z,1027.98
2016-12-16T07:55:27.124Z,1028
2016-12-16T07:56:27.189Z,1028.01
2016-12-16T07:58:27.169Z,1028.03
2016-12-16T07:59:27.184Z,1028.02
2016-12-16T08:00:27.199Z,1028.02
2016-12-16T08:01:27.215Z,1028.04
2016-12-16T08:02:27.229Z,1028.08
2016-12-16T08:03:27.247Z,1028.08
2016-12-16T08:04:27.260Z,1028.04
2016-12-16T08:05:27.275Z,1028.01
2016-12-16T08:06:27.289Z,1028.04
2016-12-16T08:07:27.308Z,1028.02
2016-12-16T08:08:27.320Z,1028.03
2016-12-16T08:09:27.336Z,1028.01
2016-12-16T08:10:27.350Z,1028.01
2016-12-16T08:11:27.365Z,1028.04
2016-12-16T08:12:27.381Z,1028.05
2016-12-16T08:14:27.411Z,1028.09
2016-12-16T08:15:27.426Z,1028.1
2016-12-16T08:16:27.442Z,1028.11
2016-12-16T08:17:27.456Z,1028.13
2016-12-16T08:18:27.471Z,1028.13
2016-12-16T08:19:27.490Z,1028.13
2016-12-16T08:20:27.503Z,1028.12
2016-12-16T08:21:27.517Z,1028.14
2016-12-16T08:22:27.535Z,1028.15
2016-12-16T08:23:27.548Z,1028.19
2016-12-16T08:24:27.562Z,1028.16
2016-12-16T08:25:27.578Z,1028.17
2016-12-16T08:26:27.593Z,1028.17
2016-12-16T08:27:27.609Z,1028.21
2016-12-16T08:28:27.624Z,1028.19
2016-12-16T08:30:27.655Z,1028.19
2016-12-16T08:31:27.671Z,1028.2
2016-12-16T08:32:27.685Z,1028.21
2016-12-16T08:33:27.701Z,1028.21
2016-12-16T08:34:27.716Z,1028.23
2016-12-16T08:35:27.731Z,1028.19
2016-12-16T08:36:27.747Z,1028.18
2016-12-16T08:37:27.762Z,1028.24
2016-12-16T08:38:27.778Z,1028.23
2016-12-16T08:39:27.793Z,1028.21
2016-12-16T08:40:27.808Z,1028.27
2016-12-16T08:41:27.824Z,1028.26
2016-12-16T08:42:27.840Z,1028.25
2016-12-16T08:43:27.856Z,1028.25
2016-12-16T08:45:27.887Z,1028.24
2016-12-16T08:46:27.902Z,1028.29
2016-12-16T08:47:27.918Z,1028.3
2016-12-16T08:48:27.947Z,1028.3
2016-12-16T08:49:27.949Z,1028.3
2016-12-16T08:50:27.964Z,1028.31
2016-12-16T08:51:27.980Z,1028.26
2016-12-16T08:52:27.996Z,1028.32
2016-12-16T08:53:28.011Z,1028.24
2016-12-16T08:54:28.027Z,1028.28
2016-12-16T08:55:28.043Z,1028.23
2016-12-16T08:56:28.058Z,1028.23
2016-12-16T08:57:28.073Z,1028.27
2016-12-16T08:58:28.089Z,1028.23
2016-12-16T08:59:28.105Z,1028.22
2016-12-16T09:00:28.122Z,1028.22
2016-12-16T09:01:28.136Z,1028.22
2016-12-16T09:02:28.152Z,1028.21
2016-12-16T09:03:28.168Z,1028.23
2016-12-16T09:04:28.183Z,1028.22
2016-12-16T09:05:28.199Z,1028.2
2016-12-16T09:06:28.215Z,1028.23
2016-12-16T09:07:28.231Z,1028.24
2016-12-16T09:08:28.246Z,1028.2
2016-12-16T09:09:28.262Z,1028.21
2016-12-16T09:10:28.279Z,1028.24
2016-12-16T09:11:28.295Z,1028.2
2016-12-16T09:12:28.314Z,1028.22
2016-12-16T09:13:28.326Z,1028.19
2016-12-16T09:14:28.342Z,1028.16
2016-12-16T09:15:28.357Z,1028.17
2016-12-16T09:17:28.389Z,1028.17
2016-12-16T09:18:28.405Z,1028.13
2016-12-16T09:19:28.420Z,1028.18
2016-12-16T09:20:28.437Z,1028.12
2016-12-16T09:21:28.453Z,1028.11
2016-12-16T09:22:28.469Z,1028.1
2016-12-16T09:23:28.534Z,1028.12
2016-12-16T09:24:28.500Z,1028.1
2016-12-16T09:25:28.517Z,1028.14
2016-12-16T09:26:28.532Z,1028.16
2016-12-16T09:27:28.548Z,1028.13
2016-12-16T09:28:28.615Z,1028.18
2016-12-16T09:29:28.581Z,1028.16
2016-12-16T09:30:28.596Z,1028.18
2016-12-16T09:31:28.614Z,1028.14
2016-12-16T09:33:28.645Z,1028.17
2016-12-16T09:34:28.660Z,1028.15
2016-12-16T09:35:28.676Z,1028.14
2016-12-16T09:36:28.692Z,1028.15
2016-12-16T09:37:28.758Z,1028.15
2016-12-16T09:38:28.725Z,1028.11
2016-12-16T09:39:28.741Z,1028.12
2016-12-16T09:40:28.757Z,1028.12
2016-12-16T09:41:28.773Z,1028.11
2016-12-16T09:42:28.789Z,1028.11
2016-12-16T09:43:28.807Z,1028.14
2016-12-16T09:44:28.827Z,1028.1
2016-12-16T09:45:28.837Z,1028.1
2016-12-16T09:46:28.854Z,1028.08
2016-12-16T09:47:28.871Z,1028.11
2016-12-16T09:49:28.903Z,1028.11
2016-12-16T09:50:28.919Z,1028.1
2016-12-16T09:51:28.936Z,1028.1
2016-12-16T09:52:28.953Z,1028.11
2016-12-16T09:53:28.969Z,1028.09
2016-12-16T09:54:28.985Z,1028.08
2016-12-16T09:55:29.001Z,1028.07
2016-12-16T09:56:29.017Z,1028.09
2016-12-16T09:57:29.033Z,1028.09
2016-12-16T09:58:29.050Z,1028.09
2016-12-16T09:59:29.065Z,1028.12
2016-12-16T10:00:29.082Z,1028.11
2016-12-16T10:01:29.099Z,1028.08
2016-12-16T10:02:29.115Z,1028.16
2016-12-16T10:03:29.131Z,1028.09
2016-12-16T10:05:29.164Z,1028.1
2016-12-16T10:06:29.182Z,1028.13
2016-12-16T10:07:29.196Z,1028.12
2016-12-16T10:08:29.213Z,1028.08
2016-12-16T10:09:29.230Z,1028.09
2016-12-16T10:10:29.245Z,1028.13
2016-12-16T10:11:29.262Z,1028.13
2016-12-16T10:12:29.279Z,1028.14
2016-12-16T10:13:29.296Z,1028.14
2016-12-16T10:14:29.312Z,1028.11
2016-12-16T10:15:29.328Z,1028.14
2016-12-16T10:16:29.345Z,1028.1
2016-12-16T10:17:29.362Z,1028.13
2016-12-16T10:18:29.379Z,1028.13
2016-12-16T10:20:29.412Z,1028.1
2016-12-16T10:21:29.428Z,1028.12
2016-12-16T10:22:29.444Z,1028.09
2016-12-16T10:23:29.461Z,1028.11
2016-12-16T10:24:29.478Z,1028.04
2016-12-16T10:25:29.494Z,1028.04
2016-12-16T10:26:29.511Z,1028.02
2016-12-16T10:27:29.527Z,1028.02
2016-12-16T10:28:29.543Z,1027.93
2016-12-16T10:29:29.560Z,1027.99
2016-12-16T10:30:29.577Z,1027.93
2016-12-16T10:31:29.594Z,1027.95
2016-12-16T10:32:29.610Z,1027.97
2016-12-16T10:33:29.626Z,1027.99
2016-12-16T10:34:29.643Z,1027.93
2016-12-16T10:35:29.661Z,1027.96
2016-12-16T10:36:29.676Z,1027.98
2016-12-16T10:37:29.693Z,1028.02
2016-12-16T10:38:29.710Z,1028
2016-12-16T10:39:29.725Z,1028.01
2016-12-16T10:40:29.742Z,1028.03
2016-12-16T10:41:29.759Z,1028.09
2016-12-16T10:42:29.776Z,1028.08
2016-12-16T10:43:29.792Z,1028.1
2016-12-16T10:44:29.809Z,1028.1
2016-12-16T10:45:29.826Z,1028.1
2016-12-16T10:46:29.843Z,1028.16
2016-12-16T10:47:29.859Z,1028.14
2016-12-16T10:48:29.876Z,1028.13
2016-12-16T10:49:29.893Z,1028.13
2016-12-16T10:50:29.908Z,1028.12
2016-12-16T10:52:29.942Z,1028.13
2016-12-16T10:53:29.959Z,1028.09
2016-12-16T10:54:29.975Z,1028.01
2016-12-16T10:55:29.992Z,1028.05
2016-12-16T10:56:30.011Z,1028.01
2016-12-16T10:57:30.027Z,1027.99
2016-12-16T10:58:30.043Z,1028
2016-12-16T10:59:30.060Z,1028
2016-12-16T11:00:30.077Z,1028.01
2016-12-16T11:01:30.094Z,1028.03
2016-12-16T11:02:30.110Z,1028.05
2016-12-16T11:03:30.128Z,1028.02
2016-12-16T11:04:30.145Z,1028.04
2016-12-16T11:05:30.160Z,1028.04
2016-12-16T11:06:30.177Z,1028.05
2016-12-16T11:08:30.222Z,1028
2016-12-16T11:09:30.229Z,1028.03
2016-12-16T11:10:30.250Z,1027.99
2016-12-16T11:11:30.263Z,1028.04
2016-12-16T11:12:30.279Z,1027.99
2016-12-16T11:13:30.298Z,1028.05
2016-12-16T11:14:30.314Z,1027.99
2016-12-16T11:15:30.331Z,1027.95
2016-12-16T11:16:30.348Z,1027.95
2016-12-16T11:17:30.365Z,1027.9
2016-12-16T11:18:30.384Z,1027.89
2016-12-16T11:19:30.400Z,1027.91
2016-12-16T11:20:30.416Z,1027.87
2016-12-16T11:21:30.433Z,1027.89
2016-12-16T11:22:30.451Z,1027.85
2016-12-16T11:24:30.485Z,1027.9
2016-12-16T11:25:30.502Z,1027.93
2016-12-16T11:26:30.520Z,1027.89
2016-12-16T11:27:30.536Z,1027.95
2016-12-16T11:28:30.553Z,1027.92
2016-12-16T11:29:30.572Z,1027.9
2016-12-16T11:30:30.590Z,1027.92
2016-12-16T11:31:30.605Z,1027.96
2016-12-16T11:32:30.622Z,1027.94
2016-12-16T11:33:30.640Z,1027.89
2016-12-16T11:34:30.656Z,1027.88
2016-12-16T11:35:30.673Z,1027.89
2016-12-16T11:36:30.691Z,1027.84
2016-12-16T11:37:30.708Z,1027.79
2016-12-16T11:38:30.725Z,1027.8
2016-12-16T11:40:30.760Z,1027.75
2016-12-16T11:41:30.779Z,1027.76
2016-12-16T11:42:30.894Z,1027.76
2016-12-16T11:43:30.811Z,1027.77
2016-12-16T11:44:30.829Z,1027.76
2016-12-16T11:45:30.845Z,1027.76
2016-12-16T11:46:30.862Z,1027.78
2016-12-16T11:47:30.880Z,1027.78
2016-12-16T11:48:30.898Z,1027.8
2016-12-16T11:49:30.914Z,1027.79
2016-12-16T11:50:30.931Z,1027.74
2016-12-16T11:51:30.949Z,1027.78
2016-12-16T11:52:30.967Z,1027.76
2016-12-16T11:53:30.984Z,1027.76
2016-12-16T11:55:31.019Z,1027.79
2016-12-16T11:56:31.036Z,1027.81
2016-12-16T11:57:31.053Z,1027.8
2016-12-16T11:58:31.071Z,1027.75
2016-12-16T11:59:31.088Z,1027.81
2016-12-16T12:00:31.105Z,1027.77
2016-12-16T12:01:31.122Z,1027.78
2016-12-16T12:02:31.150Z,1027.77
2016-12-16T12:03:31.156Z,1027.78
2016-12-16T12:04:31.174Z,1027.75
2016-12-16T12:05:31.191Z,1027.8
2016-12-16T12:06:31.209Z,1027.77
2016-12-16T12:07:31.225Z,1027.8
2016-12-16T12:08:31.243Z,1027.8
2016-12-16T12:09:31.261Z,1027.81
2016-12-16T12:10:31.278Z,1027.75
2016-12-16T12:11:31.295Z,1027.82
2016-12-16T12:12:31.312Z,1027.85
2016-12-16T12:13:31.330Z,1027.85
2016-12-16T12:14:31.346Z,1027.87
2016-12-16T12:15:31.364Z,1027.87
2016-12-16T12:16:31.382Z,1027.85
2016-12-16T12:17:31.399Z,1027.83
2016-12-16T12:18:31.416Z,1027.81
2016-12-16T12:19:31.434Z,1027.83
2016-12-16T12:20:31.451Z,1027.86
2016-12-16T12:21:31.469Z,1027.84
2016-12-16T12:22:31.485Z,1027.83
2016-12-16T12:23:31.504Z,1027.83
2016-12-16T12:24:31.520Z,1027.82
2016-12-16T12:25:31.537Z,1027.85
2016-12-16T12:27:31.572Z,1027.82
2016-12-16T12:28:31.590Z,1027.8
2016-12-16T12:29:31.607Z,1027.8
2016-12-16T12:30:31.624Z,1027.78
2016-12-16T12:31:31.642Z,1027.81
2016-12-16T12:32:31.660Z,1027.77
2016-12-16T12:33:31.676Z,1027.75
2016-12-16T12:34:31.694Z,1027.81
2016-12-16T12:35:31.711Z,1027.76
2016-12-16T12:36:31.731Z,1027.8
2016-12-16T12:37:31.745Z,1027.83
2016-12-16T12:38:31.763Z,1027.82
2016-12-16T12:39:31.781Z,1027.83
2016-12-16T12:40:31.797Z,1027.81
2016-12-16T12:41:31.815Z,1027.82
2016-12-16T12:43:31.850Z,1027.85
2016-12-16T12:44:31.867Z,1027.83
2016-12-16T12:45:31.885Z,1027.85
2016-12-16T12:46:31.902Z,1027.89
2016-12-16T12:47:31.919Z,1027.88
2016-12-16T12:48:31.937Z,1027.85
2016-12-16T12:49:31.954Z,1027.85